Time;durP1;ratioP1;P1;durP2;ratioP2;P2;SDS_P1;SDS_P2;PMS_P1;PMS_P2;Temp;Humidity;BMP_temperature;BMP_pressure;BME280_temperature;BME280_humidity;BME280_pressure;Samples;Min_cycle;Max_cycle;Signal;HPM_P1;HPM_P2
2022/03/23 00:00:51;;;;;;;21.88;12.43;;;11.50;44.10;;;;;;5054686;28;20021;-80
2022/03/23 00:03:17;;;;;;;20.25;12.70;;;11.20;44.80;;;;;;5053389;28;20032;-80
2022/03/23 00:05:43;;;;;;;35.00;17.58;;;11.30;44.20;;;;;;5035115;28;20021;-80
2022/03/23 00:08:09;;;;;;;25.80;14.85;;;11.20;43.90;;;;;;5034862;28;20056;-79
2022/03/23 00:10:35;;;;;;;27.10;15.38;;;11.10;44.50;;;;;;5035857;28;20049;-79
2022/03/23 00:13:02;;;;;;;21.25;13.27;;;11.20;44.10;;;;;;5034747;28;20033;-79
2022/03/23 00:15:28;;;;;;;75.63;34.50;;;11.10;43.90;;;;;;5036502;28;20018;-80
2022/03/23 00:17:54;;;;;;;26.13;14.77;;;11.30;43.70;;;;;;5034359;28;20033;-80
2022/03/23 00:20:20;;;;;;;88.20;36.40;;;11.30;43.70;;;;;;5035972;28;20030;-79
2022/03/23 00:22:46;;;;;;;27.95;16.20;;;11.40;43.80;;;;;;5035696;28;20025;-81
2022/03/23 00:25:12;;;;;;;28.80;16.58;;;11.60;43.80;;;;;;5051342;28;20036;-80
2022/03/23 00:27:38;;;;;;;20.42;12.57;;;11.90;43.70;;;;;;5055556;28;20029;-80
2022/03/23 00:30:05;;;;;;;20.67;11.88;;;12.10;43.60;;;;;;5054091;28;20024;-79
2022/03/23 00:32:31;;;;;;;49.50;23.70;;;12.20;43.40;;;;;;5055122;28;20031;-80
2022/03/23 00:34:57;;;;;;;28.80;15.38;;;12.30;43.20;;;;;;5042691;28;20021;-79
2022/03/23 00:37:23;;;;;;;46.20;22.48;;;11.90;43.20;;;;;;5034114;28;20032;-79
2022/03/23 00:39:49;;;;;;;20.60;12.13;;;11.80;43.20;;;;;;5035251;28;20099;-80
2022/03/23 00:42:16;;;;;;;19.13;12.13;;;11.60;43.50;;;;;;5034989;28;20030;-79
2022/03/23 00:44:42;;;;;;;18.88;11.32;;;11.50;43.60;;;;;;5043491;28;20035;-80
2022/03/23 00:47:09;;;;;;;20.30;11.95;;;11.60;43.80;;;;;;5054996;28;20048;-80
2022/03/23 00:49:35;;;;;;;19.13;11.48;;;11.70;43.50;;;;;;5055112;28;20029;-79
2022/03/23 00:52:05;;;;;;;22.08;12.20;;;11.50;43.40;;;;;;5053752;28;20021;-80
2022/03/23 00:54:35;;;;;;;19.63;11.90;;;11.40;43.80;;;;;;5047034;28;20061;-80
2022/03/23 00:57:02;;;;;;;20.15;11.63;;;11.30;43.90;;;;;;5033863;28;20025;-80
2022/03/23 00:59:28;;;;;;;20.85;12.82;;;11.40;44.00;;;;;;5047487;28;20087;-80
2022/03/23 01:01:54;;;;;;;22.15;13.98;;;11.40;44.20;;;;;;5053864;28;20025;-80
2022/03/23 01:04:20;;;;;;;23.23;14.00;;;11.30;44.70;;;;;;5055242;28;20025;-79
2022/03/23 01:06:47;;;;;;;19.52;11.77;;;11.00;45.20;;;;;;5054353;28;20036;-79
2022/03/23 01:09:13;;;;;;;17.02;11.27;;;11.00;45.10;;;;;;5043636;28;20044;-80
2022/03/23 01:11:39;;;;;;;19.00;11.68;;;11.00;44.60;;;;;;5033794;28;20445;-79
2022/03/23 01:14:07;;;;;;;24.10;14.65;;;11.20;44.30;;;;;;5034793;28;20036;-79
2022/03/23 01:16:33;;;;;;;18.27;11.25;;;11.30;44.50;;;;;;5034522;28;20021;-79
2022/03/23 01:18:59;;;;;;;17.63;11.18;;;11.10;44.50;;;;;;5040769;28;20507;-79
2022/03/23 01:21:25;;;;;;;18.70;11.10;;;11.10;44.60;;;;;;5053411;28;20032;-79
2022/03/23 01:23:51;;;;;;;17.80;10.85;;;11.10;44.40;;;;;;5052838;28;20036;-79
2022/03/23 01:26:17;;;;;;;19.00;10.98;;;11.00;44.70;;;;;;5053188;28;20017;-78
2022/03/23 01:28:44;;;;;;;16.88;10.98;;;11.10;44.70;;;;;;5049394;28;20040;-80
2022/03/23 01:31:10;;;;;;;17.25;10.75;;;10.80;44.90;;;;;;5034201;28;20083;-79
2022/03/23 01:33:35;;;;;;;19.08;11.07;;;10.90;44.90;;;;;;5032866;28;20037;-79
2022/03/23 01:36:01;;;;;;;27.58;16.75;;;11.00;44.70;;;;;;5034006;28;20041;-78
2022/03/23 01:38:27;;;;;;;18.92;11.48;;;11.00;45.50;;;;;;5047776;28;20131;-79
2022/03/23 01:40:53;;;;;;;17.73;11.43;;;11.00;45.50;;;;;;5033409;28;20060;-78
2022/03/23 01:43:18;;;;;;;18.13;11.10;;;11.00;45.50;;;;;;5032798;28;20041;-78
2022/03/23 01:45:44;;;;;;;20.15;12.25;;;10.90;45.40;;;;;;5034023;28;20021;-79
2022/03/23 01:48:10;;;;;;;24.48;13.30;;;11.10;45.30;;;;;;5032055;28;20037;-79
2022/03/23 01:50:36;;;;;;;20.75;12.10;;;11.40;45.20;;;;;;5048655;28;20080;-80
2022/03/23 01:53:03;;;;;;;19.45;12.68;;;11.40;45.20;;;;;;5032988;28;20053;-80
2022/03/23 01:55:29;;;;;;;19.02;11.13;;;11.40;44.70;;;;;;5033840;28;20036;-80
2022/03/23 01:57:55;;;;;;;20.75;11.57;;;11.50;44.30;;;;;;5033926;28;20033;-80
2022/03/23 02:00:21;;;;;;;21.65;13.07;;;11.50;44.00;;;;;;5044551;28;20144;-80
2022/03/23 02:02:47;;;;;;;18.30;11.02;;;11.30;44.10;;;;;;5046254;28;20033;-80
2022/03/23 02:05:14;;;;;;;19.00;10.27;;;11.20;43.90;;;;;;5050847;28;20029;-80
2022/03/23 02:07:40;;;;;;;20.05;11.15;;;11.40;43.80;;;;;;5033846;28;20029;-79
2022/03/23 02:10:07;;;;;;;19.38;10.93;;;11.30;43.70;;;;;;5033498;28;20040;-79
2022/03/23 02:12:33;;;;;;;17.70;11.05;;;11.30;43.60;;;;;;5033741;28;20021;-80
2022/03/23 02:15:08;;;;;;;21.65;10.68;;;11.40;43.60;;;;;;5032234;28;20052;-80
2022/03/23 02:17:34;;;;;;;19.48;11.35;;;11.50;43.20;;;;;;5032473;28;20033;-80
2022/03/23 02:20:01;;;;;;;19.73;11.43;;;11.60;42.90;;;;;;5043404;28;20399;-79
2022/03/23 02:22:27;;;;;;;17.83;10.52;;;11.50;42.60;;;;;;5052222;28;20171;-79
2022/03/23 02:24:56;;;;;;;18.50;11.07;;;10.80;43.90;;;;;;5052226;28;20029;-79
2022/03/23 02:27:22;;;;;;;21.35;10.85;;;10.70;44.10;;;;;;5035207;28;20026;-80
2022/03/23 02:29:49;;;;;;;23.63;12.18;;;10.60;43.90;;;;;;5051189;28;20040;-79
2022/03/23 02:32:14;;;;;;;17.85;10.48;;;10.10;45.10;;;;;;5051576;28;20053;-78
2022/03/23 02:34:40;;;;;;;16.83;10.57;;;10.30;44.80;;;;;;5053050;28;20428;-80
2022/03/23 02:37:06;;;;;;;19.23;10.80;;;10.40;44.70;;;;;;5037196;28;20029;-79
2022/03/23 02:39:32;;;;;;;21.92;11.65;;;10.50;45.00;;;;;;5033103;28;20045;-80
2022/03/23 02:41:58;;;;;;;19.73;10.40;;;10.50;45.00;;;;;;5033402;28;20014;-79
2022/03/23 02:44:27;;;;;;;19.45;11.75;;;10.10;44.90;;;;;;5033275;28;20030;-80
2022/03/23 02:46:53;;;;;;;18.42;10.40;;;9.90;46.20;;;;;;5046864;28;20025;-80
2022/03/23 02:49:20;;;;;;;19.05;10.75;;;10.00;45.90;;;;;;5052055;28;20032;-79
2022/03/23 02:51:46;;;;;;;18.55;10.90;;;10.20;46.30;;;;;;5051928;28;20029;-79
2022/03/23 03:03:19;;;;;;;21.13;10.75;;;10.90;45.20;;;;;;5037230;28;20032;-79
2022/03/23 03:05:45;;;;;;;19.00;10.35;;;11.00;45.20;;;;;;5039546;28;20053;-79
2022/03/23 03:10:55;;;;;;;19.92;10.40;;;10.60;45.00;;;;;;5057312;28;20035;-79
2022/03/23 03:13:20;;;;;;;19.67;11.30;;;10.70;45.10;;;;;;5056947;28;20402;-79
2022/03/23 03:15:46;;;;;;;17.98;10.30;;;10.60;45.70;;;;;;5051363;28;20029;-79
2022/03/23 03:18:12;;;;;;;17.75;11.07;;;10.70;45.60;;;;;;5035555;28;20034;-79
2022/03/23 03:20:37;;;;;;;16.77;10.02;;;10.50;46.20;;;;;;5036793;28;20025;-79
2022/03/23 03:23:03;;;;;;;19.27;11.75;;;10.60;46.00;;;;;;5035404;28;20065;-79
2022/03/23 03:25:29;;;;;;;20.20;12.27;;;10.40;46.40;;;;;;5037967;28;20056;-79
2022/03/23 03:27:55;;;;;;;20.73;12.40;;;10.30;46.40;;;;;;5055466;28;20056;-79
2022/03/23 03:30:20;;;;;;;18.73;11.10;;;9.90;47.30;;;;;;5055334;28;20063;-80
2022/03/23 03:32:47;;;;;;;18.20;11.20;;;9.60;47.60;;;;;;5055195;28;20040;-79
2022/03/23 03:35:13;;;;;;;22.52;11.90;;;9.60;47.70;;;;;;5051332;28;20028;-79
2022/03/23 03:37:39;;;;;;;19.60;11.65;;;9.90;47.80;;;;;;5055325;28;20044;-80
2022/03/23 03:40:06;;;;;;;18.33;11.77;;;9.80;48.40;;;;;;5054350;28;20047;-80
2022/03/23 03:42:34;;;;;;;17.05;10.02;;;10.00;48.60;;;;;;5055318;28;20021;-79
2022/03/23 03:45:01;;;;;;;21.45;13.05;;;10.30;48.70;;;;;;5044573;28;20077;-80
2022/03/23 03:47:27;;;;;;;17.77;10.48;;;10.10;47.10;;;;;;5035197;28;20072;-79
2022/03/23 03:49:53;;;;;;;18.35;10.90;;;10.10;47.00;;;;;;5035320;28;20033;-79
2022/03/23 03:52:19;;;;;;;18.67;10.55;;;10.10;47.10;;;;;;5036345;28;20092;-80
2022/03/23 03:54:45;;;;;;;21.65;11.10;;;10.10;47.80;;;;;;5043684;28;20037;-79
2022/03/23 03:57:11;;;;;;;16.33;10.00;;;10.20;47.70;;;;;;5056378;28;20033;-80
2022/03/23 03:59:37;;;;;;;18.08;10.48;;;10.10;48.40;;;;;;5054978;28;20029;-79
2022/03/23 04:02:04;;;;;;;17.27;10.07;;;9.90;47.50;;;;;;5053532;28;20052;-79
2022/03/23 04:04:30;;;;;;;16.90;9.65;;;10.10;47.20;;;;;;5055879;28;20029;-79
2022/03/23 04:06:56;;;;;;;15.15;9.93;;;10.20;47.40;;;;;;5055973;28;20090;-79
2022/03/23 04:09:22;;;;;;;17.70;11.40;;;10.40;47.20;;;;;;5055760;28;20036;-79
2022/03/23 04:11:47;;;;;;;16.45;9.90;;;10.20;47.60;;;;;;5053473;28;20057;-79
2022/03/23 04:14:13;;;;;;;16.63;10.32;;;10.00;47.60;;;;;;5054696;28;20067;-79
2022/03/23 04:16:39;;;;;;;17.25;10.23;;;10.10;47.00;;;;;;5055865;28;20029;-79
2022/03/23 04:19:06;;;;;;;18.85;10.15;;;9.90;47.50;;;;;;5054324;28;20032;-80
2022/03/23 04:21:32;;;;;;;18.45;11.43;;;9.90;47.80;;;;;;5040886;28;20022;-78
2022/03/23 04:23:58;;;;;;;19.15;11.07;;;10.10;47.10;;;;;;5035838;28;20495;-79
2022/03/23 04:26:24;;;;;;;16.52;10.40;;;10.30;47.00;;;;;;5034449;28;20017;-79
2022/03/23 04:28:51;;;;;;;16.27;10.65;;;10.30;46.70;;;;;;5034884;28;20132;-79
2022/03/23 04:31:17;;;;;;;16.83;10.43;;;10.20;46.80;;;;;;5044989;28;20489;-79
2022/03/23 04:33:43;;;;;;;19.55;10.88;;;10.10;47.20;;;;;;5055300;28;20518;-78
2022/03/23 04:36:11;;;;;;;19.52;10.90;;;10.10;47.50;;;;;;5054031;28;20074;-79
2022/03/23 04:38:37;;;;;;;19.15;11.15;;;9.70;48.60;;;;;;5051578;28;20102;-79
2022/03/23 04:41:04;;;;;;;18.73;10.82;;;9.60;49.10;;;;;;5034189;28;20108;-80
2022/03/23 04:43:30;;;;;;;21.63;11.80;;;9.80;48.30;;;;;;5034305;28;20025;-79
2022/03/23 04:45:56;;;;;;;21.35;11.20;;;9.80;48.00;;;;;;5035307;28;20449;-79
2022/03/23 04:48:22;;;;;;;20.40;11.45;;;9.80;48.00;;;;;;5035525;28;20033;-79
2022/03/23 04:50:48;;;;;;;17.75;10.75;;;9.50;48.40;;;;;;5039654;28;20070;-79
2022/03/23 04:53:15;;;;;;;20.25;11.00;;;9.40;48.90;;;;;;5064856;28;20076;-80
2022/03/23 04:55:41;;;;;;;18.95;11.68;;;9.50;48.90;;;;;;5074795;28;20053;-80
2022/03/23 04:58:07;;;;;;;22.52;11.45;;;9.40;49.00;;;;;;5055731;28;20060;-79
2022/03/23 05:00:34;;;;;;;20.33;11.38;;;9.10;49.60;;;;;;5054849;28;20025;-80
2022/03/23 05:03:00;;;;;;;18.75;10.85;;;9.10;49.60;;;;;;5064123;28;20029;-79
2022/03/23 05:05:26;;;;;;;17.50;10.32;;;9.20;49.50;;;;;;5062528;28;20082;-76
2022/03/23 05:07:52;;;;;;;21.40;11.20;;;9.20;49.60;;;;;;5064502;28;20402;-78
2022/03/23 05:10:18;;;;;;;20.85;9.93;;;9.50;48.90;;;;;;5054552;28;20017;-79
2022/03/23 05:12:45;;;;;;;19.05;10.02;;;9.70;48.40;;;;;;5058384;28;20035;-78
2022/03/23 05:15:13;;;;;;;16.92;10.38;;;9.70;48.10;;;;;;5071132;28;20074;-78
2022/03/23 05:17:40;;;;;;;27.67;15.88;;;9.60;48.30;;;;;;5052345;28;20025;-79
2022/03/23 05:20:07;;;;;;;21.38;12.93;;;9.30;49.20;;;;;;5068971;28;20085;-77
2022/03/23 05:22:33;;;;;;;18.60;10.40;;;9.60;49.40;;;;;;5052616;28;20106;-77
2022/03/23 05:24:59;;;;;;;20.27;11.20;;;9.80;48.80;;;;;;5053489;28;20045;-79
2022/03/23 05:27:25;;;;;;;21.33;13.40;;;9.70;49.20;;;;;;5051829;28;20021;-78
2022/03/23 05:29:51;;;;;;;19.23;11.70;;;10.00;49.00;;;;;;5042888;28;20034;-79
2022/03/23 05:32:18;;;;;;;20.05;12.43;;;10.40;48.30;;;;;;5049255;28;20078;-78
2022/03/23 05:34:48;;;;;;;22.35;11.50;;;10.60;47.90;;;;;;5060237;28;20500;-80
2022/03/23 05:37:16;;;;;;;17.27;10.55;;;10.70;47.90;;;;;;5054255;28;20024;-80
2022/03/23 05:39:43;;;;;;;20.25;11.48;;;10.70;48.20;;;;;;5052876;28;20103;-79
2022/03/23 05:42:09;;;;;;;156.75;53.03;;;10.60;48.20;;;;;;5052840;28;20438;-80
2022/03/23 05:44:35;;;;;;;200.45;76.78;;;10.80;47.90;;;;;;5043555;28;20025;-80
2022/03/23 05:47:02;;;;;;;80.90;36.50;;;10.80;48.10;;;;;;5041892;28;20381;-79
2022/03/23 05:49:28;;;;;;;31.65;16.35;;;10.90;47.90;;;;;;5037675;28;20445;-76
2022/03/23 05:51:53;;;;;;;36.55;19.02;;;10.90;48.60;;;;;;5050492;28;20030;-77
2022/03/23 05:54:20;;;;;;;31.35;17.83;;;10.60;49.20;;;;;;5063831;28;20490;-76
2022/03/23 05:56:46;;;;;;;19.55;11.90;;;10.50;49.60;;;;;;5059961;28;20020;-78
2022/03/23 05:59:12;;;;;;;23.45;12.43;;;10.70;49.30;;;;;;5063463;28;20028;-79
2022/03/23 06:01:37;;;;;;;24.80;13.68;;;10.90;49.00;;;;;;5059953;28;20017;-79
2022/03/23 06:04:03;;;;;;;22.27;13.00;;;11.00;48.80;;;;;;5060015;28;20501;-79
2022/03/23 06:06:29;;;;;;;25.58;13.00;;;11.40;48.00;;;;;;5060220;28;20029;-77
2022/03/23 06:08:55;;;;;;;23.83;13.45;;;11.40;48.00;;;;;;5056711;28;20503;-79
2022/03/23 06:11:21;;;;;;;24.60;13.68;;;11.60;47.60;;;;;;5062742;28;20130;-77
2022/03/23 06:13:47;;;;;;;24.98;14.02;;;11.60;47.60;;;;;;5061228;28;20025;-78
2022/03/23 06:16:12;;;;;;;27.10;13.95;;;11.70;47.50;;;;;;5058606;28;20075;-79
2022/03/23 06:18:38;;;;;;;31.45;13.43;;;11.80;47.60;;;;;;5065716;28;20090;-80
2022/03/23 06:21:04;;;;;;;25.95;13.75;;;11.90;47.40;;;;;;5071705;28;20020;-78
2022/03/23 06:23:31;;;;;;;23.80;13.52;;;12.30;47.30;;;;;;5067237;28;20043;-78
2022/03/23 06:25:57;;;;;;;25.15;13.48;;;12.60;46.50;;;;;;5052477;28;20017;-78
2022/03/23 06:28:23;;;;;;;24.73;14.05;;;12.70;46.80;;;;;;5051649;28;20036;-79
2022/03/23 06:30:50;;;;;;;24.00;13.63;;;12.90;46.50;;;;;;5054473;28;20037;-78
2022/03/23 06:33:17;;;;;;;25.15;13.18;;;12.90;46.60;;;;;;5061469;28;20038;-79
2022/03/23 06:35:43;;;;;;;21.20;12.93;;;12.90;46.20;;;;;;5055176;28;20055;-79
2022/03/23 06:38:08;;;;;;;21.73;12.75;;;13.00;46.50;;;;;;5057425;28;20116;-79
2022/03/23 06:40:34;;;;;;;22.30;13.40;;;13.30;46.00;;;;;;5061053;28;20394;-78
2022/03/23 06:43:00;;;;;;;22.75;12.80;;;13.50;44.50;;;;;;5059411;28;20463;-78
2022/03/23 06:45:26;;;;;;;21.35;12.52;;;13.50;45.00;;;;;;5071385;28;20033;-77
2022/03/23 06:47:52;;;;;;;22.92;13.73;;;13.90;44.10;;;;;;5071209;28;20025;-80
2022/03/23 06:50:18;;;;;;;22.38;14.23;;;14.30;43.00;;;;;;5071552;28;20027;-78
2022/03/23 06:52:43;;;;;;;23.98;13.85;;;14.80;40.20;;;;;;5072461;28;20029;-77
2022/03/23 06:55:10;;;;;;;18.52;12.15;;;15.00;41.80;;;;;;5071264;28;20056;-77
2022/03/23 06:57:35;;;;;;;15.77;9.48;;;15.40;39.90;;;;;;5072508;28;20063;-77
2022/03/23 07:00:07;;;;;;;17.13;9.65;;;15.70;36.50;;;;;;5072186;28;20111;-77
2022/03/23 07:02:32;;;;;;;15.50;9.00;;;16.00;36.20;;;;;;5072505;28;20481;-78
2022/03/23 07:04:58;;;;;;;15.95;9.23;;;16.30;36.10;;;;;;5072407;28;20028;-77
2022/03/23 07:07:24;;;;;;;20.50;9.13;;;16.60;35.80;;;;;;5072253;28;20021;-77
2022/03/23 07:09:49;;;;;;;17.85;9.40;;;16.90;35.70;;;;;;5071339;28;20475;-77
2022/03/23 07:12:17;;;;;;;16.05;9.60;;;17.10;35.20;;;;;;5071288;28;20032;-78
2022/03/23 07:14:43;;;;;;;15.00;9.50;;;17.30;34.60;;;;;;5072260;28;20108;-77
2022/03/23 07:17:08;;;;;;;14.85;8.50;;;17.50;34.90;;;;;;5071040;28;20123;-77
2022/03/23 07:19:34;;;;;;;17.77;9.18;;;17.50;32.80;;;;;;5071121;28;20032;-78
2022/03/23 07:22:00;;;;;;;16.67;9.25;;;17.70;33.40;;;;;;5072094;28;20475;-77
2022/03/23 07:24:26;;;;;;;16.33;9.48;;;17.70;33.70;;;;;;5071057;28;20028;-78
2022/03/23 07:26:52;;;;;;;17.25;9.45;;;18.00;34.70;;;;;;5072236;28;20091;-77
2022/03/23 07:29:18;;;;;;;15.60;9.00;;;18.20;33.40;;;;;;5070570;28;20074;-77
2022/03/23 07:31:46;;;;;;;16.45;9.13;;;18.50;33.70;;;;;;5071126;28;20101;-77
2022/03/23 07:34:13;;;;;;;14.60;9.70;;;18.80;34.50;;;;;;5072188;28;20108;-77
2022/03/23 07:36:39;;;;;;;14.85;9.48;;;19.10;34.00;;;;;;5072189;28;20028;-77
2022/03/23 07:39:04;;;;;;;16.08;9.00;;;19.00;32.90;;;;;;5070738;28;20041;-78
2022/03/23 07:41:30;;;;;;;15.60;9.07;;;19.40;32.30;;;;;;5070780;28;20043;-78
2022/03/23 07:43:56;;;;;;;14.88;9.18;;;19.90;32.40;;;;;;5070875;28;20032;-78
2022/03/23 07:46:21;;;;;;;13.93;9.20;;;20.60;31.80;;;;;;5074320;28;20375;-78
2022/03/23 07:48:47;;;;;;;17.13;10.13;;;21.30;31.60;;;;;;5074733;28;20028;-79
2022/03/23 07:51:13;;;;;;;32.25;10.63;;;22.80;30.80;;;;;;5075812;28;20024;-79
2022/03/23 07:53:39;;;;;;;16.40;10.00;;;24.30;29.60;;;;;;5074378;28;20024;-80
2022/03/23 07:56:05;;;;;;;16.83;10.50;;;24.80;29.50;;;;;;5075734;28;20059;-79
2022/03/23 07:58:30;;;;;;;18.80;11.05;;;26.50;29.00;;;;;;5075552;28;20033;-80
2022/03/23 08:00:56;;;;;;;16.40;10.27;;;27.40;28.90;;;;;;5073897;28;20070;-80
2022/03/23 08:03:22;;;;;;;16.15;10.18;;;28.10;28.50;;;;;;5074306;28;20383;-80
2022/03/23 08:05:48;;;;;;;20.30;11.15;;;28.00;28.40;;;;;;5074210;28;20078;-79
2022/03/23 08:08:14;;;;;;;16.05;10.20;;;27.40;28.50;;;;;;5075113;28;20028;-80
2022/03/23 08:10:42;;;;;;;15.50;10.18;;;26.00;28.20;;;;;;5075199;28;20033;-79
2022/03/23 08:13:09;;;;;;;15.45;10.75;;;25.00;28.50;;;;;;5074155;28;20036;-80
2022/03/23 08:15:38;;;;;;;18.35;10.45;;;25.70;28.90;;;;;;5074181;28;20478;-80
2022/03/23 08:18:05;;;;;;;16.45;10.30;;;26.50;28.60;;;;;;5075609;28;20052;-80
2022/03/23 08:20:33;;;;;;;16.67;10.45;;;27.00;28.40;;;;;;5074347;28;20025;-80
2022/03/23 08:23:03;;;;;;;16.95;10.27;;;28.40;28.90;;;;;;5076566;28;20021;-81
2022/03/23 08:25:29;;;;;;;21.02;10.98;;;29.10;28.00;;;;;;5076649;28;20027;-80
2022/03/23 08:27:56;;;;;;;15.88;10.70;;;27.50;28.00;;;;;;5075894;28;20028;-81
2022/03/23 08:30:22;;;;;;;16.30;10.95;;;27.30;28.80;;;;;;5075561;28;20028;-81
2022/03/23 08:32:48;;;;;;;16.88;10.32;;;27.70;28.60;;;;;;5073603;28;20039;-80
2022/03/23 08:35:14;;;;;;;15.35;10.43;;;27.90;28.30;;;;;;5075061;28;20658;-81
2022/03/23 08:37:39;;;;;;;16.00;10.02;;;28.20;28.30;;;;;;5074830;28;20035;-80
2022/03/23 08:40:06;;;;;;;15.60;9.82;;;27.70;28.30;;;;;;5058953;28;20056;-80
2022/03/23 08:42:32;;;;;;;15.02;10.07;;;26.80;28.10;;;;;;5055387;28;20108;-81
2022/03/23 08:44:58;;;;;;;17.05;9.98;;;27.00;28.80;;;;;;5055153;28;20025;-81
2022/03/23 08:47:23;;;;;;;15.95;10.20;;;27.70;28.30;;;;;;5054834;28;20466;-81
2022/03/23 08:49:49;;;;;;;16.63;9.55;;;27.90;28.40;;;;;;5053683;28;20056;-81
2022/03/23 08:52:15;;;;;;;13.88;9.40;;;28.40;28.50;;;;;;5054827;28;20463;-80
2022/03/23 08:54:41;;;;;;;14.90;10.25;;;28.60;28.10;;;;;;5054816;28;20026;-81
2022/03/23 08:57:07;;;;;;;16.10;9.80;;;29.30;28.40;;;;;;5053900;28;20021;-82
2022/03/23 08:59:33;;;;;;;15.48;9.95;;;29.30;28.70;;;;;;5054870;28;20091;-82
2022/03/23 09:01:59;;;;;;;14.25;10.15;;;30.00;28.10;;;;;;5055388;28;20071;-83
2022/03/23 09:04:25;;;;;;;17.20;10.50;;;31.10;28.50;;;;;;5054654;28;20099;-82
2022/03/23 09:06:50;;;;;;;13.73;9.50;;;31.80;28.10;;;;;;5054559;28;20048;-81
2022/03/23 09:09:16;;;;;;;15.88;9.98;;;32.80;27.70;;;;;;5053699;28;20074;-82
2022/03/23 09:11:43;;;;;;;13.07;9.20;;;33.70;27.90;;;;;;5054696;28;20017;-82
2022/03/23 09:14:10;;;;;;;21.02;9.95;;;34.40;28.20;;;;;;5053296;28;20032;-80
2022/03/23 09:16:35;;;;;;;13.43;9.45;;;34.50;27.70;;;;;;5054192;28;20021;-80
2022/03/23 09:19:02;;;;;;;13.27;9.50;;;32.40;27.20;;;;;;5052843;28;20044;-81
2022/03/23 09:21:28;;;;;;;26.73;10.23;;;31.60;27.90;;;;;;5054427;28;20056;-81
2022/03/23 09:23:53;;;;;;;13.75;8.43;;;31.80;28.60;;;;;;5054396;28;20406;-81
2022/03/23 09:26:19;;;;;;;12.73;8.98;;;33.60;28.60;;;;;;5054391;28;20052;-82
2022/03/23 09:28:45;;;;;;;13.20;8.07;;;35.20;27.30;;;;;;5054249;28;20029;-83
2022/03/23 09:31:11;;;;;;;12.75;8.45;;;35.70;28.80;;;;;;5053264;28;20524;-82
2022/03/23 09:33:37;;;;;;;13.05;8.52;;;36.40;27.60;;;;;;5052925;28;20021;-83
2022/03/23 09:36:03;;;;;;;13.77;8.32;;;36.80;28.00;;;;;;5054273;28;20031;-83
2022/03/23 09:38:29;;;;;;;15.43;9.00;;;36.40;26.90;;;;;;5053944;28;20059;-82
2022/03/23 09:40:56;;;;;;;12.38;8.63;;;35.10;27.50;;;;;;5054112;28;20021;-83
2022/03/23 09:43:23;;;;;;;13.63;7.32;;;34.40;28.40;;;;;;5054479;28;20486;-82
2022/03/23 09:45:51;;;;;;;12.68;7.30;;;35.50;28.20;;;;;;5053338;28;20486;-83
2022/03/23 09:48:21;;;;;;;13.68;7.57;;;37.10;27.20;;;;;;5054197;28;20424;-83
2022/03/23 09:50:48;;;;;;;;;;;37.20;27.10;;;;;;5054541;28;20024;-82
2022/03/23 09:53:14;;;;;;;10.50;6.85;;;33.80;26.30;;;;;;4704239;28;10000985;-80
2022/03/23 09:55:42;;;;;;;13.35;7.10;;;30.60;26.60;;;;;;5030931;28;20121;-82
2022/03/23 09:58:09;;;;;;;10.38;7.13;;;28.90;27.20;;;;;;5032169;28;20048;-82
2022/03/23 10:00:37;;;;;;;10.90;7.35;;;28.60;27.20;;;;;;5032217;28;20025;-82
2022/03/23 10:03:12;;;;;;;14.13;7.43;;;28.60;27.40;;;;;;5031882;28;20025;-83
2022/03/23 10:06:18;;;;;;;9.73;6.70;;;29.30;27.10;;;;;;5031067;28;20056;-81
2022/03/23 10:09:11;;;;;;;58.05;9.55;;;30.30;26.90;;;;;;5031898;28;20044;-81
2022/03/23 10:12:04;;;;;;;10.68;6.50;;;32.50;27.20;;;;;;5031945;28;20025;-81
2022/03/23 10:14:45;;;;;;;12.35;7.30;;;33.60;27.20;;;;;;5033580;28;20052;-82
2022/03/23 10:17:42;;;;;;;11.40;7.07;;;34.70;27.20;;;;;;5033155;28;20032;-82
2022/03/23 10:20:11;;;;;;;11.95;6.53;;;35.00;26.60;;;;;;5033549;28;20029;-82
2022/03/23 10:22:47;;;;;;;10.48;6.70;;;36.40;28.00;;;;;;5032732;28;20157;-81
2022/03/23 10:25:14;;;;;;;12.77;6.95;;;34.80;26.10;;;;;;5033661;28;20025;-81
2022/03/23 10:27:40;;;;;;;9.40;6.70;;;34.50;27.10;;;;;;5032980;28;20025;-81
2022/03/23 10:30:06;;;;;;;10.35;6.93;;;35.00;26.30;;;;;;5032959;28;20044;-82
2022/03/23 10:32:36;;;;;;;9.60;6.20;;;34.00;26.20;;;;;;5033364;28;20104;-81
2022/03/23 10:35:04;;;;;;;9.90;5.65;;;35.00;26.70;;;;;;5049330;28;20029;-79
2022/03/23 10:37:33;;;;;;;9.65;5.70;;;34.90;26.10;;;;;;5049631;28;20032;-83
2022/03/23 10:40:01;;;;;;;10.18;6.70;;;32.80;25.70;;;;;;5033363;28;20088;-81
2022/03/23 10:42:31;;;;;;;13.23;6.65;;;31.80;26.00;;;;;;5049877;28;20060;-82
2022/03/23 10:45:10;;;;;;;9.53;5.83;;;32.20;26.30;;;;;;5050291;28;20021;-82
2022/03/23 10:47:38;;;;;;;8.73;4.78;;;34.00;26.50;;;;;;5031032;28;20029;-82
2022/03/23 10:50:07;;;;;;;8.07;5.50;;;36.10;26.00;;;;;;5031065;28;20381;-83
2022/03/23 10:52:33;;;;;;;9.65;6.05;;;34.90;25.60;;;;;;5031421;28;20437;-82
2022/03/23 10:55:02;;;;;;;7.05;5.05;;;33.70;25.70;;;;;;5030891;28;20476;-82
2022/03/23 10:58:01;;;;;;;10.32;4.90;;;33.20;25.20;;;;;;5030719;28;20468;-82
2022/03/23 11:00:35;;;;;;;8.95;5.00;;;33.20;25.50;;;;;;5031445;28;20475;-82
2022/03/23 11:03:03;;;;;;;9.40;4.80;;;32.30;25.50;;;;;;5031428;28;20032;-80
2022/03/23 11:05:36;;;;;;;9.45;5.53;;;33.10;25.20;;;;;;5030053;28;20048;-82
2022/03/23 11:08:24;;;;;;;6.90;4.80;;;34.80;26.00;;;;;;5064363;28;20025;-81
2022/03/23 11:16:42;;;;;;;9.85;6.20;;;30.90;26.10;;;;;;5069434;28;20044;-80
2022/03/23 11:19:11;;;;;;;11.75;5.60;;;29.00;26.20;;;;;;5051858;28;20500;-81
2022/03/23 11:21:58;;;;;;;12.48;6.97;;;28.70;26.40;;;;;;5054278;28;20553;-80
2022/03/23 11:24:25;;;;;;;10.88;6.32;;;28.80;26.50;;;;;;5073261;28;20025;-80
2022/03/23 11:26:52;;;;;;;11.70;6.68;;;28.00;26.20;;;;;;5056809;28;20078;-79
2022/03/23 11:29:18;;;;;;;10.35;6.40;;;27.20;26.90;;;;;;5057372;28;20170;-81
2022/03/23 11:31:48;;;;;;;10.25;6.70;;;26.10;26.90;;;;;;5057703;28;20021;-82
2022/03/23 11:34:20;;;;;;;11.07;7.22;;;25.60;26.70;;;;;;5057919;28;20028;-82
2022/03/23 11:36:48;;;;;;;11.50;6.85;;;25.40;26.90;;;;;;5057713;28;20028;-80
2022/03/23 11:39:14;;;;;;;10.70;6.85;;;25.80;27.60;;;;;;5074195;28;20083;-82
2022/03/23 11:41:43;;;;;;;10.98;6.57;;;26.60;27.20;;;;;;5057036;28;20098;-81
2022/03/23 11:44:14;;;;;;;12.13;6.45;;;26.40;26.90;;;;;;5055594;28;20028;-81
2022/03/23 11:46:41;;;;;;;11.48;6.72;;;26.30;27.10;;;;;;5057147;28;20029;-82
2022/03/23 11:49:40;;;;;;;14.80;6.97;;;26.40;26.80;;;;;;5073744;28;20085;-79
2022/03/23 11:52:24;;;;;;;11.55;7.15;;;25.20;27.20;;;;;;5057178;28;20044;-82
2022/03/23 11:57:56;;;;;;;13.23;6.85;;;24.40;27.90;;;;;;5075617;28;20039;-81
2022/03/23 12:00:24;;;;;;;15.73;6.93;;;23.70;27.70;;;;;;5075012;28;20029;-81
2022/03/23 12:02:51;;;;;;;10.90;7.70;;;23.90;27.80;;;;;;5076065;28;20024;-81
2022/03/23 12:05:24;;;;;;;11.90;7.60;;;24.50;28.00;;;;;;5074842;28;20379;-82
2022/03/23 12:07:50;;;;;;;14.52;8.10;;;24.60;27.90;;;;;;5075824;28;20031;-81
2022/03/23 12:10:31;;;;;;;11.90;7.60;;;24.70;27.60;;;;;;5074538;28;20043;-80
2022/03/23 12:13:18;;;;;;;10.73;7.38;;;24.70;27.50;;;;;;5074675;28;20052;-82
2022/03/23 12:15:57;;;;;;;13.73;7.45;;;24.90;27.60;;;;;;5075371;28;20025;-81
2022/03/23 12:19:02;;;;;;;13.98;6.90;;;25.40;27.90;;;;;;5074420;28;20056;-82
2022/03/23 12:21:31;;;;;;;10.30;6.53;;;25.90;27.20;;;;;;5074357;28;20106;-82
2022/03/23 12:24:09;;;;;;;15.50;6.45;;;25.90;27.60;;;;;;5074511;28;20021;-81
2022/03/23 12:26:43;;;;;;;23.35;7.20;;;25.30;27.30;;;;;;5075583;28;20032;-81
2022/03/23 12:29:19;;;;;;;9.45;6.68;;;24.90;27.50;;;;;;5074112;28;20031;-82
2022/03/23 12:31:45;;;;;;;10.63;6.80;;;24.60;27.40;;;;;;5073975;28;20127;-80
2022/03/23 12:34:27;;;;;;;11.48;6.88;;;24.90;26.80;;;;;;5074036;28;20108;-80
2022/03/23 12:36:57;;;;;;;12.00;6.80;;;24.60;26.60;;;;;;5075051;28;20103;-81
2022/03/23 12:39:24;;;;;;;12.80;6.88;;;25.00;27.00;;;;;;5073794;28;20056;-80
2022/03/23 12:41:50;;;;;;;10.25;6.15;;;24.70;27.10;;;;;;5075120;28;20020;-82
2022/03/23 12:44:15;;;;;;;12.52;6.22;;;24.80;27.70;;;;;;5073804;28;20033;-82
2022/03/23 12:46:48;;;;;;;9.88;6.53;;;25.60;27.70;;;;;;5073588;28;20066;-81
2022/03/23 12:58:12;;;;;;;10.38;6.07;;;26.00;27.20;;;;;;5081763;28;20042;-83
2022/03/23 13:00:49;;;;;;;11.25;6.53;;;26.30;26.70;;;;;;5072909;28;20449;-80
2022/03/23 13:03:15;;;;;;;9.32;6.30;;;25.80;26.30;;;;;;5073501;28;20078;-81
2022/03/23 13:05:59;;;;;;;15.05;6.50;;;25.00;26.60;;;;;;5075267;28;20027;-81